EDHL/LBC METAR and TAF weather

Enter ICAO airport designator
Station Type Date Time Source
EDHL METAR 2019/06/24 18:50 UTC NOAA

EDHL 241850Z 03004KT CAVOK 22/16 Q1022


Station Type Date Time Source
EDHL Decoded METAR 2019/06/24 18:50 UTC NOAA

Luebeck-Blankensee, Germany (EDHL) 53-49N 010-42E 15M
Jun 24, 2019 - 02:50 PM EDT / 2019.06.24 1850 UTC
Wind: from the NNE (030 degrees) at 5 MPH (4 KT):0
Visibility: greater than 7 mile(s):0
Temperature: 71 F (22 C)
Dew Point: 60 F (16 C)
Relative Humidity: 68%
Pressure (altimeter): 30.18 in. Hg (1022 hPa)
ob: EDHL 241850Z 03004KT CAVOK 22/16 Q1022
cycle: 19

Station Type Date Time Source
EDHL TAF 2010/02/22 14:20 UTC NOAA

METAR EDHL 221420Z 15004KT 110V180 9999 FEW039 SCT120 05/02 Q0990
RMK X

Example: see airport list